sensor_id;sensor_type;location;lat;lon;timestamp;P1;durP1;ratioP1;P2;durP2;ratioP2
60919;SDS011;59039;52.108;19.942;2024-01-25T00:01:42;23.40;;;6.30;;
60919;SDS011;59039;52.108;19.942;2024-01-25T00:04:08;29.20;;;7.50;;
60919;SDS011;59039;52.108;19.942;2024-01-25T00:06:33;21.30;;;6.00;;
60919;SDS011;59039;52.108;19.942;2024-01-25T00:08:58;32.00;;;6.00;;
60919;SDS011;59039;52.108;19.942;2024-01-25T00:11:24;17.50;;;5.10;;
60919;SDS011;59039;52.108;19.942;2024-01-25T00:13:49;18.70;;;5.60;;
60919;SDS011;59039;52.108;19.942;2024-01-25T00:16:14;28.80;;;6.00;;
60919;SDS011;59039;52.108;19.942;2024-01-25T00:18:40;20.00;;;4.90;;
60919;SDS011;59039;52.108;19.942;2024-01-25T00:21:05;23.10;;;5.20;;
60919;SDS011;59039;52.108;19.942;2024-01-25T00:23:30;29.70;;;5.70;;
60919;SDS011;59039;52.108;19.942;2024-01-25T00:25:55;17.70;;;4.00;;
60919;SDS011;59039;52.108;19.942;2024-01-25T00:28:21;20.80;;;4.90;;
60919;SDS011;59039;52.108;19.942;2024-01-25T00:30:46;23.00;;;5.10;;
60919;SDS011;59039;52.108;19.942;2024-01-25T00:33:11;19.30;;;5.20;;
60919;SDS011;59039;52.108;19.942;2024-01-25T00:35:36;28.40;;;5.10;;
60919;SDS011;59039;52.108;19.942;2024-01-25T00:38:02;28.50;;;4.60;;
60919;SDS011;59039;52.108;19.942;2024-01-25T00:40:27;14.40;;;4.20;;
60919;SDS011;59039;52.108;19.942;2024-01-25T00:42:53;23.70;;;5.80;;
60919;SDS011;59039;52.108;19.942;2024-01-25T00:45:19;22.60;;;5.00;;
60919;SDS011;59039;52.108;19.942;2024-01-25T00:47:45;28.00;;;5.30;;
60919;SDS011;59039;52.108;19.942;2024-01-25T00:50:10;35.80;;;6.50;;
60919;SDS011;59039;52.108;19.942;2024-01-25T00:52:36;23.40;;;5.10;;
60919;SDS011;59039;52.108;19.942;2024-01-25T00:55:02;25.80;;;4.80;;
60919;SDS011;59039;52.108;19.942;2024-01-25T00:57:27;24.00;;;5.40;;
60919;SDS011;59039;52.108;19.942;2024-01-25T00:59:53;20.80;;;5.40;;
60919;SDS011;59039;52.108;19.942;2024-01-25T01:02:18;23.80;;;5.60;;
60919;SDS011;59039;52.108;19.942;2024-01-25T01:04:46;27.40;;;5.80;;
60919;SDS011;59039;52.108;19.942;2024-01-25T01:07:12;16.10;;;4.40;;
60919;SDS011;59039;52.108;19.942;2024-01-25T01:09:37;22.40;;;5.00;;
60919;SDS011;59039;52.108;19.942;2024-01-25T01:12:02;29.50;;;5.10;;
60919;SDS011;59039;52.108;19.942;2024-01-25T01:14:28;22.50;;;5.40;;
60919;SDS011;59039;52.108;19.942;2024-01-25T01:16:53;19.60;;;5.50;;
60919;SDS011;59039;52.108;19.942;2024-01-25T01:19:18;25.00;;;4.90;;
60919;SDS011;59039;52.108;19.942;2024-01-25T01:21:44;22.60;;;4.60;;
60919;SDS011;59039;52.108;19.942;2024-01-25T01:24:09;21.10;;;4.10;;
60919;SDS011;59039;52.108;19.942;2024-01-25T01:26:35;19.70;;;4.50;;
60919;SDS011;59039;52.108;19.942;2024-01-25T01:29:00;19.70;;;4.70;;
60919;SDS011;59039;52.108;19.942;2024-01-25T01:31:26;23.00;;;4.50;;
60919;SDS011;59039;52.108;19.942;2024-01-25T01:33:51;24.80;;;4.80;;
60919;SDS011;59039;52.108;19.942;2024-01-25T01:36:16;21.40;;;4.00;;
60919;SDS011;59039;52.108;19.942;2024-01-25T01:38:41;16.90;;;4.30;;
60919;SDS011;59039;52.108;19.942;2024-01-25T01:41:06;23.80;;;4.10;;
60919;SDS011;59039;52.108;19.942;2024-01-25T01:43:34;20.20;;;4.10;;
60919;SDS011;59039;52.108;19.942;2024-01-25T01:46:02;31.00;;;4.90;;
60919;SDS011;59039;52.108;19.942;2024-01-25T01:48:31;28.20;;;5.20;;
60919;SDS011;59039;52.108;19.942;2024-01-25T01:50:57;28.40;;;4.30;;
60919;SDS011;59039;52.108;19.942;2024-01-25T01:53:22;20.00;;;5.20;;
60919;SDS011;59039;52.108;19.942;2024-01-25T01:55:47;27.90;;;4.80;;
60919;SDS011;59039;52.108;19.942;2024-01-25T01:58:13;20.50;;;4.50;;
60919;SDS011;59039;52.108;19.942;2024-01-25T02:00:38;25.70;;;5.50;;
60919;SDS011;59039;52.108;19.942;2024-01-25T02:03:06;21.20;;;4.90;;
60919;SDS011;59039;52.108;19.942;2024-01-25T02:08:40;16.00;;;3.80;;
60919;SDS011;59039;52.108;19.942;2024-01-25T02:11:05;22.40;;;3.00;;
60919;SDS011;59039;52.108;19.942;2024-01-25T02:13:30;14.90;;;3.20;;
60919;SDS011;59039;52.108;19.942;2024-01-25T02:15:56;14.30;;;3.50;;
60919;SDS011;59039;52.108;19.942;2024-01-25T02:18:21;18.20;;;4.20;;
60919;SDS011;59039;52.108;19.942;2024-01-25T02:20:47;22.20;;;3.90;;
60919;SDS011;59039;52.108;19.942;2024-01-25T02:23:12;19.00;;;3.90;;
60919;SDS011;59039;52.108;19.942;2024-01-25T02:25:37;19.40;;;4.90;;
60919;SDS011;59039;52.108;19.942;2024-01-25T02:28:02;21.00;;;3.70;;
60919;SDS011;59039;52.108;19.942;2024-01-25T02:30:28;17.00;;;3.40;;
60919;SDS011;59039;52.108;19.942;2024-01-25T02:32:53;16.00;;;3.10;;
60919;SDS011;59039;52.108;19.942;2024-01-25T02:35:18;27.30;;;4.00;;
60919;SDS011;59039;52.108;19.942;2024-01-25T02:37:43;14.50;;;3.00;;
60919;SDS011;59039;52.108;19.942;2024-01-25T02:40:09;22.60;;;4.30;;
60919;SDS011;59039;52.108;19.942;2024-01-25T02:42:34;17.90;;;3.50;;
60919;SDS011;59039;52.108;19.942;2024-01-25T02:44:59;16.10;;;4.60;;
60919;SDS011;59039;52.108;19.942;2024-01-25T02:47:25;18.80;;;3.20;;
60919;SDS011;59039;52.108;19.942;2024-01-25T02:49:50;22.10;;;4.90;;
60919;SDS011;59039;52.108;19.942;2024-01-25T02:52:15;10.50;;;3.40;;
60919;SDS011;59039;52.108;19.942;2024-01-25T02:54:40;20.30;;;4.40;;
60919;SDS011;59039;52.108;19.942;2024-01-25T02:57:06;14.20;;;3.70;;
60919;SDS011;59039;52.108;19.942;2024-01-25T02:59:31;22.30;;;4.90;;
60919;SDS011;59039;52.108;19.942;2024-01-25T03:01:56;20.70;;;3.20;;
60919;SDS011;59039;52.108;19.942;2024-01-25T03:04:22;15.60;;;3.60;;
60919;SDS011;59039;52.108;19.942;2024-01-25T03:06:47;20.20;;;4.40;;
60919;SDS011;59039;52.108;19.942;2024-01-25T03:09:13;25.00;;;4.20;;
60919;SDS011;59039;52.108;19.942;2024-01-25T03:11:38;21.60;;;3.50;;
60919;SDS011;59039;52.108;19.942;2024-01-25T03:14:03;20.90;;;5.40;;
60919;SDS011;59039;52.108;19.942;2024-01-25T03:16:28;20.10;;;4.10;;
60919;SDS011;59039;52.108;19.942;2024-01-25T03:18:53;15.20;;;3.30;;
60919;SDS011;59039;52.108;19.942;2024-01-25T03:21:19;25.90;;;4.80;;
60919;SDS011;59039;52.108;19.942;2024-01-25T03:23:44;20.40;;;3.90;;
60919;SDS011;59039;52.108;19.942;2024-01-25T03:26:09;15.30;;;4.30;;
60919;SDS011;59039;52.108;19.942;2024-01-25T03:28:34;23.80;;;5.30;;
60919;SDS011;59039;52.108;19.942;2024-01-25T03:31:00;19.90;;;3.60;;
60919;SDS011;59039;52.108;19.942;2024-01-25T03:33:25;12.80;;;3.20;;
60919;SDS011;59039;52.108;19.942;2024-01-25T03:35:50;14.40;;;3.30;;
60919;SDS011;59039;52.108;19.942;2024-01-25T03:38:15;16.90;;;3.50;;
60919;SDS011;59039;52.108;19.942;2024-01-25T03:40:40;26.80;;;4.60;;
60919;SDS011;59039;52.108;19.942;2024-01-25T03:43:06;16.20;;;3.50;;
60919;SDS011;59039;52.108;19.942;2024-01-25T03:45:31;14.70;;;3.10;;
60919;SDS011;59039;52.108;19.942;2024-01-25T03:47:56;18.30;;;3.70;;
60919;SDS011;59039;52.108;19.942;2024-01-25T03:50:21;16.80;;;3.70;;
60919;SDS011;59039;52.108;19.942;2024-01-25T03:52:46;20.80;;;3.40;;
60919;SDS011;59039;52.108;19.942;2024-01-25T03:55:12;22.10;;;3.60;;
60919;SDS011;59039;52.108;19.942;2024-01-25T03:57:37;21.00;;;4.60;;
60919;SDS011;59039;52.108;19.942;2024-01-25T04:00:02;21.30;;;4.20;;
60919;SDS011;59039;52.108;19.942;2024-01-25T04:02:28;12.00;;;3.90;;
60919;SDS011;59039;52.108;19.942;2024-01-25T04:04:53;14.90;;;3.50;;
60919;SDS011;59039;52.108;19.942;2024-01-25T04:07:18;17.40;;;4.30;;
60919;SDS011;59039;52.108;19.942;2024-01-25T04:09:43;18.40;;;3.50;;
60919;SDS011;59039;52.108;19.942;2024-01-25T04:12:08;17.50;;;4.60;;
60919;SDS011;59039;52.108;19.942;2024-01-25T04:14:34;16.00;;;3.30;;
60919;SDS011;59039;52.108;19.942;2024-01-25T04:16:59;23.00;;;3.70;;
60919;SDS011;59039;52.108;19.942;2024-01-25T04:19:24;17.20;;;3.80;;
60919;SDS011;59039;52.108;19.942;2024-01-25T04:21:49;21.30;;;4.00;;
60919;SDS011;59039;52.108;19.942;2024-01-25T04:24:15;16.30;;;4.00;;
60919;SDS011;59039;52.108;19.942;2024-01-25T04:26:40;24.00;;;4.40;;
60919;SDS011;59039;52.108;19.942;2024-01-25T04:29:05;21.00;;;4.30;;
60919;SDS011;59039;52.108;19.942;2024-01-25T04:31:30;14.30;;;4.00;;
60919;SDS011;59039;52.108;19.942;2024-01-25T04:33:56;14.00;;;3.90;;
60919;SDS011;59039;52.108;19.942;2024-01-25T04:36:21;14.20;;;3.50;;
60919;SDS011;59039;52.108;19.942;2024-01-25T04:38:47;27.10;;;4.50;;
60919;SDS011;59039;52.108;19.942;2024-01-25T04:41:12;20.00;;;4.80;;
60919;SDS011;59039;52.108;19.942;2024-01-25T04:43:37;16.90;;;4.40;;
60919;SDS011;59039;52.108;19.942;2024-01-25T04:46:02;20.10;;;4.70;;
60919;SDS011;59039;52.108;19.942;2024-01-25T04:48:28;20.20;;;4.10;;
60919;SDS011;59039;52.108;19.942;2024-01-25T04:50:55;29.50;;;5.20;;
60919;SDS011;59039;52.108;19.942;2024-01-25T04:53:21;22.20;;;4.90;;
60919;SDS011;59039;52.108;19.942;2024-01-25T04:55:47;40.80;;;6.50;;
60919;SDS011;59039;52.108;19.942;2024-01-25T04:58:12;24.80;;;6.70;;
60919;SDS011;59039;52.108;19.942;2024-01-25T05:00:37;28.10;;;5.70;;
60919;SDS011;59039;52.108;19.942;2024-01-25T05:03:02;21.50;;;4.80;;
60919;SDS011;59039;52.108;19.942;2024-01-25T05:05:28;20.20;;;5.20;;
60919;SDS011;59039;52.108;19.942;2024-01-25T05:07:53;32.50;;;5.90;;
60919;SDS011;59039;52.108;19.942;2024-01-25T05:10:18;30.40;;;7.10;;
60919;SDS011;59039;52.108;19.942;2024-01-25T05:12:43;25.10;;;4.40;;
60919;SDS011;59039;52.108;19.942;2024-01-25T05:15:08;28.20;;;5.40;;
60919;SDS011;59039;52.108;19.942;2024-01-25T05:17:34;35.00;;;6.90;;
60919;SDS011;59039;52.108;19.942;2024-01-25T05:19:59;32.90;;;6.70;;
60919;SDS011;59039;52.108;19.942;2024-01-25T05:22:24;27.40;;;5.80;;
60919;SDS011;59039;52.108;19.942;2024-01-25T05:24:50;31.30;;;5.90;;
60919;SDS011;59039;52.108;19.942;2024-01-25T05:27:15;29.30;;;6.00;;
60919;SDS011;59039;52.108;19.942;2024-01-25T05:29:40;36.90;;;6.50;;
60919;SDS011;59039;52.108;19.942;2024-01-25T05:32:05;34.30;;;6.40;;
60919;SDS011;59039;52.108;19.942;2024-01-25T05:34:31;21.40;;;5.30;;
60919;SDS011;59039;52.108;19.942;2024-01-25T05:36:56;33.30;;;6.10;;
60919;SDS011;59039;52.108;19.942;2024-01-25T05:39:21;31.40;;;6.40;;
60919;SDS011;59039;52.108;19.942;2024-01-25T05:41:46;28.30;;;5.50;;
60919;SDS011;59039;52.108;19.942;2024-01-25T05:44:12;34.10;;;7.60;;
60919;SDS011;59039;52.108;19.942;2024-01-25T05:46:37;27.00;;;6.70;;
60919;SDS011;59039;52.108;19.942;2024-01-25T05:49:03;23.30;;;6.30;;
60919;SDS011;59039;52.108;19.942;2024-01-25T05:51:28;26.00;;;5.70;;
60919;SDS011;59039;52.108;19.942;2024-01-25T05:53:53;25.30;;;6.50;;
60919;SDS011;59039;52.108;19.942;2024-01-25T05:56:18;31.80;;;6.60;;
60919;SDS011;59039;52.108;19.942;2024-01-25T05:58:44;22.20;;;5.70;;
60919;SDS011;59039;52.108;19.942;2024-01-25T06:01:09;26.60;;;5.10;;
60919;SDS011;59039;52.108;19.942;2024-01-25T06:03:34;19.40;;;5.10;;
60919;SDS011;59039;52.108;19.942;2024-01-25T06:05:59;19.00;;;4.60;;
60919;SDS011;59039;52.108;19.942;2024-01-25T06:08:25;24.80;;;4.90;;
60919;SDS011;59039;52.108;19.942;2024-01-25T06:10:50;29.10;;;4.80;;
60919;SDS011;59039;52.108;19.942;2024-01-25T06:13:15;27.10;;;5.70;;
60919;SDS011;59039;52.108;19.942;2024-01-25T06:15:40;26.90;;;5.70;;
60919;SDS011;59039;52.108;19.942;2024-01-25T06:18:05;29.20;;;6.10;;
60919;SDS011;59039;52.108;19.942;2024-01-25T06:20:31;26.90;;;5.90;;
60919;SDS011;59039;52.108;19.942;2024-01-25T06:22:56;16.40;;;5.10;;
60919;SDS011;59039;52.108;19.942;2024-01-25T06:25:21;24.50;;;5.10;;
60919;SDS011;59039;52.108;19.942;2024-01-25T06:27:46;20.30;;;4.60;;
60919;SDS011;59039;52.108;19.942;2024-01-25T06:30:12;15.80;;;4.40;;
60919;SDS011;59039;52.108;19.942;2024-01-25T06:32:37;36.90;;;5.70;;
60919;SDS011;59039;52.108;19.942;2024-01-25T06:35:03;20.10;;;5.40;;
60919;SDS011;59039;52.108;19.942;2024-01-25T06:37:28;26.80;;;5.60;;
60919;SDS011;59039;52.108;19.942;2024-01-25T06:39:53;26.20;;;6.40;;
60919;SDS011;59039;52.108;19.942;2024-01-25T06:42:19;22.00;;;5.20;;
60919;SDS011;59039;52.108;19.942;2024-01-25T06:44:44;22.20;;;5.50;;
60919;SDS011;59039;52.108;19.942;2024-01-25T06:47:09;19.80;;;5.80;;
60919;SDS011;59039;52.108;19.942;2024-01-25T06:49:34;16.40;;;4.50;;
60919;SDS011;59039;52.108;19.942;2024-01-25T06:52:00;29.60;;;7.10;;
60919;SDS011;59039;52.108;19.942;2024-01-25T06:54:25;54.20;;;13.00;;
60919;SDS011;59039;52.108;19.942;2024-01-25T06:56:50;62.50;;;15.10;;
60919;SDS011;59039;52.108;19.942;2024-01-25T06:59:15;48.10;;;10.40;;
60919;SDS011;59039;52.108;19.942;2024-01-25T07:01:40;35.60;;;6.90;;
60919;SDS011;59039;52.108;19.942;2024-01-25T07:04:06;25.30;;;6.00;;
60919;SDS011;59039;52.108;19.942;2024-01-25T07:06:31;30.10;;;7.20;;
60919;SDS011;59039;52.108;19.942;2024-01-25T07:08:56;26.10;;;5.90;;
60919;SDS011;59039;52.108;19.942;2024-01-25T07:11:21;33.70;;;7.70;;
60919;SDS011;59039;52.108;19.942;2024-01-25T07:13:46;30.80;;;7.10;;
60919;SDS011;59039;52.108;19.942;2024-01-25T07:16:12;28.00;;;5.50;;
60919;SDS011;59039;52.108;19.942;2024-01-25T07:18:37;30.80;;;6.00;;
60919;SDS011;59039;52.108;19.942;2024-01-25T07:21:02;24.10;;;5.90;;
60919;SDS011;59039;52.108;19.942;2024-01-25T07:23:29;33.30;;;6.80;;
60919;SDS011;59039;52.108;19.942;2024-01-25T07:25:55;19.90;;;5.20;;
60919;SDS011;59039;52.108;19.942;2024-01-25T07:28:20;34.50;;;6.60;;
60919;SDS011;59039;52.108;19.942;2024-01-25T07:30:48;29.00;;;7.50;;
60919;SDS011;59039;52.108;19.942;2024-01-25T07:33:14;34.20;;;5.90;;
60919;SDS011;59039;52.108;19.942;2024-01-25T07:35:39;23.20;;;6.10;;
60919;SDS011;59039;52.108;19.942;2024-01-25T07:38:04;16.00;;;4.70;;
60919;SDS011;59039;52.108;19.942;2024-01-25T07:40:30;17.80;;;5.10;;
60919;SDS011;59039;52.108;19.942;2024-01-25T07:42:55;19.00;;;4.20;;
60919;SDS011;59039;52.108;19.942;2024-01-25T07:45:20;28.40;;;5.80;;
60919;SDS011;59039;52.108;19.942;2024-01-25T07:47:45;13.50;;;5.20;;
60919;SDS011;59039;52.108;19.942;2024-01-25T07:50:10;15.70;;;5.30;;
60919;SDS011;59039;52.108;19.942;2024-01-25T07:52:36;21.30;;;5.60;;
60919;SDS011;59039;52.108;19.942;2024-01-25T07:55:01;19.90;;;4.60;;
60919;SDS011;59039;52.108;19.942;2024-01-25T07:57:26;12.30;;;4.10;;
60919;SDS011;59039;52.108;19.942;2024-01-25T07:59:51;19.20;;;5.40;;
60919;SDS011;59039;52.108;19.942;2024-01-25T08:02:17;19.80;;;5.50;;
60919;SDS011;59039;52.108;19.942;2024-01-25T08:04:42;14.00;;;4.70;;
60919;SDS011;59039;52.108;19.942;2024-01-25T08:07:07;17.10;;;5.00;;
60919;SDS011;59039;52.108;19.942;2024-01-25T08:09:32;22.50;;;5.90;;
60919;SDS011;59039;52.108;19.942;2024-01-25T08:11:58;20.90;;;5.90;;
60919;SDS011;59039;52.108;19.942;2024-01-25T08:14:23;23.50;;;6.50;;
60919;SDS011;59039;52.108;19.942;2024-01-25T08:16:48;24.00;;;6.50;;
60919;SDS011;59039;52.108;19.942;2024-01-25T08:19:13;22.00;;;6.50;;
60919;SDS011;59039;52.108;19.942;2024-01-25T08:21:38;21.00;;;5.40;;
60919;SDS011;59039;52.108;19.942;2024-01-25T08:24:04;24.50;;;6.80;;
60919;SDS011;59039;52.108;19.942;2024-01-25T08:26:29;21.50;;;6.10;;
60919;SDS011;59039;52.108;19.942;2024-01-25T08:28:54;20.50;;;6.00;;
60919;SDS011;59039;52.108;19.942;2024-01-25T08:31:20;25.80;;;6.80;;
60919;SDS011;59039;52.108;19.942;2024-01-25T08:33:45;24.50;;;6.50;;
60919;SDS011;59039;52.108;19.942;2024-01-25T08:36:10;21.40;;;5.50;;
60919;SDS011;59039;52.108;19.942;2024-01-25T08:38:35;20.40;;;5.20;;
60919;SDS011;59039;52.108;19.942;2024-01-25T08:41:01;15.90;;;5.20;;
60919;SDS011;59039;52.108;19.942;2024-01-25T08:43:26;18.90;;;6.90;;
60919;SDS011;59039;52.108;19.942;2024-01-25T08:45:51;14.70;;;4.60;;
60919;SDS011;59039;52.108;19.942;2024-01-25T08:48:16;17.20;;;4.50;;
60919;SDS011;59039;52.108;19.942;2024-01-25T08:50:42;17.60;;;5.30;;
60919;SDS011;59039;52.108;19.942;2024-01-25T08:53:07;17.70;;;5.80;;
60919;SDS011;59039;52.108;19.942;2024-01-25T08:55:32;14.40;;;4.80;;
60919;SDS011;59039;52.108;19.942;2024-01-25T08:57:57;11.90;;;4.40;;
60919;SDS011;59039;52.108;19.942;2024-01-25T09:00:23;14.10;;;4.30;;
60919;SDS011;59039;52.108;19.942;2024-01-25T09:02:48;12.60;;;4.00;;
60919;SDS011;59039;52.108;19.942;2024-01-25T09:05:14;10.30;;;4.20;;
60919;SDS011;59039;52.108;19.942;2024-01-25T09:07:39;14.30;;;4.10;;
60919;SDS011;59039;52.108;19.942;2024-01-25T09:10:04;11.70;;;4.30;;
60919;SDS011;59039;52.108;19.942;2024-01-25T09:12:30;16.60;;;4.90;;
60919;SDS011;59039;52.108;19.942;2024-01-25T09:14:55;18.20;;;4.50;;
60919;SDS011;59039;52.108;19.942;2024-01-25T09:17:21;14.30;;;4.10;;
60919;SDS011;59039;52.108;19.942;2024-01-25T09:19:46;13.70;;;4.50;;
60919;SDS011;59039;52.108;19.942;2024-01-25T09:22:12;13.40;;;4.70;;
60919;SDS011;59039;52.108;19.942;2024-01-25T09:24:37;9.30;;;4.40;;
60919;SDS011;59039;52.108;19.942;2024-01-25T09:27:02;15.00;;;4.70;;
60919;SDS011;59039;52.108;19.942;2024-01-25T09:29:27;15.50;;;5.80;;
60919;SDS011;59039;52.108;19.942;2024-01-25T09:31:53;12.10;;;4.30;;
60919;SDS011;59039;52.108;19.942;2024-01-25T09:34:18;15.00;;;4.90;;
60919;SDS011;59039;52.108;19.942;2024-01-25T09:36:44;26.30;;;8.00;;
60919;SDS011;59039;52.108;19.942;2024-01-25T09:39:10;14.40;;;6.10;;
60919;SDS011;59039;52.108;19.942;2024-01-25T09:41:35;15.70;;;6.00;;
60919;SDS011;59039;52.108;19.942;2024-01-25T09:44:00;22.60;;;8.70;;
60919;SDS011;59039;52.108;19.942;2024-01-25T09:46:26;18.30;;;7.50;;
60919;SDS011;59039;52.108;19.942;2024-01-25T09:48:51;25.80;;;8.10;;
60919;SDS011;59039;52.108;19.942;2024-01-25T09:51:17;17.20;;;7.60;;
60919;SDS011;59039;52.108;19.942;2024-01-25T09:53:42;19.00;;;6.60;;
60919;SDS011;59039;52.108;19.942;2024-01-25T09:56:10;13.80;;;5.50;;
60919;SDS011;59039;52.108;19.942;2024-01-25T10:01:05;12.10;;;3.70;;
60919;SDS011;59039;52.108;19.942;2024-01-25T10:03:33;8.70;;;4.30;;
60919;SDS011;59039;52.108;19.942;2024-01-25T10:05:59;12.10;;;4.20;;
60919;SDS011;59039;52.108;19.942;2024-01-25T10:08:24;8.80;;;3.70;;
60919;SDS011;59039;52.108;19.942;2024-01-25T10:10:49;11.20;;;4.40;;
60919;SDS011;59039;52.108;19.942;2024-01-25T10:13:14;14.60;;;4.70;;
60919;SDS011;59039;52.108;19.942;2024-01-25T10:15:40;17.70;;;4.30;;
60919;SDS011;59039;52.108;19.942;2024-01-25T10:18:05;10.60;;;4.10;;
60919;SDS011;59039;52.108;19.942;2024-01-25T10:20:31;11.30;;;3.90;;
60919;SDS011;59039;52.108;19.942;2024-01-25T10:22:57;14.90;;;4.50;;
60919;SDS011;59039;52.108;19.942;2024-01-25T10:25:23;15.30;;;3.80;;
60919;SDS011;59039;52.108;19.942;2024-01-25T10:27:48;9.00;;;4.40;;
60919;SDS011;59039;52.108;19.942;2024-01-25T10:30:13;11.80;;;4.50;;
60919;SDS011;59039;52.108;19.942;2024-01-25T10:32:39;12.30;;;3.80;;
60919;SDS011;59039;52.108;19.942;2024-01-25T10:35:06;8.40;;;3.70;;
60919;SDS011;59039;52.108;19.942;2024-01-25T10:37:33;9.20;;;3.50;;
60919;SDS011;59039;52.108;19.942;2024-01-25T10:39:59;13.10;;;4.20;;
60919;SDS011;59039;52.108;19.942;2024-01-25T10:42:24;16.90;;;5.40;;
60919;SDS011;59039;52.108;19.942;2024-01-25T10:44:50;11.80;;;5.20;;
60919;SDS011;59039;52.108;19.942;2024-01-25T10:47:15;10.20;;;3.80;;
60919;SDS011;59039;52.108;19.942;2024-01-25T10:49:40;12.10;;;4.00;;
60919;SDS011;59039;52.108;19.942;2024-01-25T10:52:06;14.80;;;4.70;;
60919;SDS011;59039;52.108;19.942;2024-01-25T10:54:32;10.10;;;3.70;;
60919;SDS011;59039;52.108;19.942;2024-01-25T10:56:58;8.10;;;3.50;;
60919;SDS011;59039;52.108;19.942;2024-01-25T10:59:23;10.10;;;3.70;;
60919;SDS011;59039;52.108;19.942;2024-01-25T11:01:49;9.50;;;4.10;;
60919;SDS011;59039;52.108;19.942;2024-01-25T11:04:18;8.90;;;3.80;;
60919;SDS011;59039;52.108;19.942;2024-01-25T11:06:44;9.50;;;4.10;;
60919;SDS011;59039;52.108;19.942;2024-01-25T11:09:10;13.70;;;4.90;;
60919;SDS011;59039;52.108;19.942;2024-01-25T11:11:43;9.20;;;3.80;;
60919;SDS011;59039;52.108;19.942;2024-01-25T11:14:11;10.00;;;5.30;;
60919;SDS011;59039;52.108;19.942;2024-01-25T11:16:37;12.00;;;4.60;;
60919;SDS011;59039;52.108;19.942;2024-01-25T11:19:04;20.10;;;10.00;;
60919;SDS011;59039;52.108;19.942;2024-01-25T11:21:42;20.00;;;7.70;;
60919;SDS011;59039;52.108;19.942;2024-01-25T11:24:12;13.40;;;7.20;;
60919;SDS011;59039;52.108;19.942;2024-01-25T11:26:38;16.50;;;7.00;;
60919;SDS011;59039;52.108;19.942;2024-01-25T11:29:04;20.70;;;10.00;;
60919;SDS011;59039;52.108;19.942;2024-01-25T11:31:29;12.80;;;6.50;;
60919;SDS011;59039;52.108;19.942;2024-01-25T11:33:58;19.70;;;9.00;;
60919;SDS011;59039;52.108;19.942;2024-01-25T11:36:24;33.70;;;12.80;;
60919;SDS011;59039;52.108;19.942;2024-01-25T11:38:49;68.60;;;21.60;;
60919;SDS011;59039;52.108;19.942;2024-01-25T11:41:14;85.40;;;25.80;;
60919;SDS011;59039;52.108;19.942;2024-01-25T11:43:40;93.10;;;26.80;;
60919;SDS011;59039;52.108;19.942;2024-01-25T11:46:06;56.20;;;16.50;;
60919;SDS011;59039;52.108;19.942;2024-01-25T11:48:31;76.00;;;25.60;;
60919;SDS011;59039;52.108;19.942;2024-01-25T11:50:58;80.90;;;26.00;;
60919;SDS011;59039;52.108;19.942;2024-01-25T11:53:24;70.80;;;22.80;;
60919;SDS011;59039;52.108;19.942;2024-01-25T11:55:50;54.70;;;18.90;;
60919;SDS011;59039;52.108;19.942;2024-01-25T11:58:15;32.50;;;13.80;;
60919;SDS011;59039;52.108;19.942;2024-01-25T12:00:41;19.10;;;7.80;;
60919;SDS011;59039;52.108;19.942;2024-01-25T12:03:06;15.30;;;7.00;;
60919;SDS011;59039;52.108;19.942;2024-01-25T12:05:32;11.70;;;6.00;;
60919;SDS011;59039;52.108;19.942;2024-01-25T12:07:58;13.50;;;5.30;;
60919;SDS011;59039;52.108;19.942;2024-01-25T12:10:24;13.30;;;4.40;;
60919;SDS011;59039;52.108;19.942;2024-01-25T12:12:49;15.00;;;5.30;;
60919;SDS011;59039;52.108;19.942;2024-01-25T12:15:14;14.40;;;4.90;;
60919;SDS011;59039;52.108;19.942;2024-01-25T12:17:39;11.70;;;4.40;;
60919;SDS011;59039;52.108;19.942;2024-01-25T12:20:05;15.10;;;4.30;;
60919;SDS011;59039;52.108;19.942;2024-01-25T12:22:30;9.30;;;4.50;;
60919;SDS011;59039;52.108;19.942;2024-01-25T12:24:56;10.10;;;4.20;;
60919;SDS011;59039;52.108;19.942;2024-01-25T12:27:22;9.90;;;4.40;;
60919;SDS011;59039;52.108;19.942;2024-01-25T12:29:49;22.70;;;7.40;;
60919;SDS011;59039;52.108;19.942;2024-01-25T12:32:16;33.90;;;12.00;;
60919;SDS011;59039;52.108;19.942;2024-01-25T12:34:41;34.70;;;13.40;;
60919;SDS011;59039;52.108;19.942;2024-01-25T12:37:07;38.20;;;16.10;;
60919;SDS011;59039;52.108;19.942;2024-01-25T12:39:33;30.20;;;12.40;;
60919;SDS011;59039;52.108;19.942;2024-01-25T12:41:58;25.00;;;11.50;;
60919;SDS011;59039;52.108;19.942;2024-01-25T12:44:23;17.80;;;8.70;;
60919;SDS011;59039;52.108;19.942;2024-01-25T12:46:49;22.40;;;7.10;;
60919;SDS011;59039;52.108;19.942;2024-01-25T12:49:14;12.60;;;4.50;;
60919;SDS011;59039;52.108;19.942;2024-01-25T12:51:40;13.30;;;4.40;;
60919;SDS011;59039;52.108;19.942;2024-01-25T12:54:05;14.20;;;4.70;;
60919;SDS011;59039;52.108;19.942;2024-01-25T12:56:30;18.30;;;4.40;;
60919;SDS011;59039;52.108;19.942;2024-01-25T12:58:56;14.60;;;4.70;;
60919;SDS011;59039;52.108;19.942;2024-01-25T13:01:21;13.80;;;4.30;;
60919;SDS011;59039;52.108;19.942;2024-01-25T13:03:46;11.60;;;4.40;;
60919;SDS011;59039;52.108;19.942;2024-01-25T13:06:12;15.20;;;5.80;;
60919;SDS011;59039;52.108;19.942;2024-01-25T13:08:37;17.70;;;4.90;;
60919;SDS011;59039;52.108;19.942;2024-01-25T13:11:02;14.00;;;5.90;;
60919;SDS011;59039;52.108;19.942;2024-01-25T13:13:28;19.60;;;7.90;;
60919;SDS011;59039;52.108;19.942;2024-01-25T13:15:53;24.40;;;6.40;;
60919;SDS011;59039;52.108;19.942;2024-01-25T13:18:18;14.60;;;5.70;;
60919;SDS011;59039;52.108;19.942;2024-01-25T13:20:43;11.90;;;4.60;;
60919;SDS011;59039;52.108;19.942;2024-01-25T13:23:09;45.00;;;16.40;;
60919;SDS011;59039;52.108;19.942;2024-01-25T13:25:34;47.90;;;18.30;;
60919;SDS011;59039;52.108;19.942;2024-01-25T13:27:59;30.50;;;13.20;;
60919;SDS011;59039;52.108;19.942;2024-01-25T13:30:24;26.60;;;9.20;;
60919;SDS011;59039;52.108;19.942;2024-01-25T13:32:49;28.10;;;9.70;;
60919;SDS011;59039;52.108;19.942;2024-01-25T13:35:15;21.80;;;9.10;;
60919;SDS011;59039;52.108;19.942;2024-01-25T13:37:40;21.40;;;8.10;;
60919;SDS011;59039;52.108;19.942;2024-01-25T13:40:05;16.70;;;9.50;;
60919;SDS011;59039;52.108;19.942;2024-01-25T13:42:31;18.50;;;7.80;;
60919;SDS011;59039;52.108;19.942;2024-01-25T13:44:56;16.70;;;8.10;;
60919;SDS011;59039;52.108;19.942;2024-01-25T13:47:21;19.30;;;8.90;;
60919;SDS011;59039;52.108;19.942;2024-01-25T13:49:46;17.50;;;7.30;;
60919;SDS011;59039;52.108;19.942;2024-01-25T13:52:16;24.80;;;8.40;;
60919;SDS011;59039;52.108;19.942;2024-01-25T13:54:43;21.00;;;7.30;;
60919;SDS011;59039;52.108;19.942;2024-01-25T13:57:08;22.40;;;6.20;;
60919;SDS011;59039;52.108;19.942;2024-01-25T13:59:33;13.80;;;6.00;;
60919;SDS011;59039;52.108;19.942;2024-01-25T14:01:58;11.70;;;5.40;;
60919;SDS011;59039;52.108;19.942;2024-01-25T14:04:23;8.30;;;4.10;;
60919;SDS011;59039;52.108;19.942;2024-01-25T14:06:49;8.80;;;4.20;;
60919;SDS011;59039;52.108;19.942;2024-01-25T14:09:14;9.00;;;3.90;;
60919;SDS011;59039;52.108;19.942;2024-01-25T14:11:39;7.70;;;4.40;;
60919;SDS011;59039;52.108;19.942;2024-01-25T14:14:04;8.40;;;5.30;;
60919;SDS011;59039;52.108;19.942;2024-01-25T14:16:29;7.00;;;5.00;;